sensor_id;sensor_type;location;lat;lon;timestamp;pressure;altitude;pressure_sealevel;temperature;humidity
74065;BME280;62421;51.412;5.432;2023-05-09T00:00:50;101644.88;;;14.42;100.00
74065;BME280;62421;51.412;5.432;2023-05-09T00:03:15;101653.00;;;14.42;100.00
74065;BME280;62421;51.412;5.432;2023-05-09T00:05:41;101655.59;;;14.43;100.00
74065;BME280;62421;51.412;5.432;2023-05-09T00:08:06;101643.88;;;14.43;100.00
74065;BME280;62421;51.412;5.432;2023-05-09T00:10:32;101648.34;;;14.44;100.00
74065;BME280;62421;51.412;5.432;2023-05-09T00:12:57;101649.19;;;14.44;100.00
74065;BME280;62421;51.412;5.432;2023-05-09T00:15:23;101642.94;;;14.44;100.00
74065;BME280;62421;51.412;5.432;2023-05-09T00:17:50;101633.09;;;14.43;100.00
74065;BME280;62421;51.412;5.432;2023-05-09T00:20:15;101630.53;;;14.41;100.00
74065;BME280;62421;51.412;5.432;2023-05-09T00:22:41;101632.34;;;14.41;100.00
74065;BME280;62421;51.412;5.432;2023-05-09T00:25:10;101621.75;;;14.38;100.00
74065;BME280;62421;51.412;5.432;2023-05-09T00:27:36;101624.56;;;14.36;100.00
74065;BME280;62421;51.412;5.432;2023-05-09T00:30:02;101631.06;;;14.33;100.00
74065;BME280;62421;51.412;5.432;2023-05-09T00:32:28;101625.25;;;14.27;100.00
74065;BME280;62421;51.412;5.432;2023-05-09T00:34:54;101613.81;;;14.23;100.00
74065;BME280;62421;51.412;5.432;2023-05-09T00:37:20;101604.00;;;14.22;100.00
74065;BME280;62421;51.412;5.432;2023-05-09T00:39:48;101615.66;;;14.23;100.00
74065;BME280;62421;51.412;5.432;2023-05-09T00:42:14;101603.75;;;14.25;100.00
74065;BME280;62421;51.412;5.432;2023-05-09T00:44:39;101608.81;;;14.30;100.00
74065;BME280;62421;51.412;5.432;2023-05-09T00:47:05;101610.41;;;14.32;100.00
74065;BME280;62421;51.412;5.432;2023-05-09T00:49:31;101608.69;;;14.31;100.00
74065;BME280;62421;51.412;5.432;2023-05-09T00:51:57;101598.00;;;14.30;100.00
74065;BME280;62421;51.412;5.432;2023-05-09T00:54:23;101598.00;;;14.30;100.00
74065;BME280;62421;51.412;5.432;2023-05-09T00:56:48;101597.78;;;14.33;100.00
74065;BME280;62421;51.412;5.432;2023-05-09T00:59:14;101588.81;;;14.32;100.00
74065;BME280;62421;51.412;5.432;2023-05-09T01:01:39;101577.03;;;14.33;100.00
74065;BME280;62421;51.412;5.432;2023-05-09T01:04:05;101586.09;;;14.32;100.00
74065;BME280;62421;51.412;5.432;2023-05-09T01:07:03;101576.28;;;14.31;100.00
74065;BME280;62421;51.412;5.432;2023-05-09T01:09:59;101571.34;;;14.25;100.00
74065;BME280;62421;51.412;5.432;2023-05-09T01:12:46;101570.59;;;14.23;100.00
74065;BME280;62421;51.412;5.432;2023-05-09T01:20:42;101570.19;;;14.17;100.00
74065;BME280;62421;51.412;5.432;2023-05-09T01:25:48;101537.38;;;14.10;100.00
74065;BME280;62421;51.412;5.432;2023-05-09T01:28:50;101542.75;;;14.10;100.00
74065;BME280;62421;51.412;5.432;2023-05-09T01:31:21;101547.31;;;14.09;100.00
74065;BME280;62421;51.412;5.432;2023-05-09T01:33:58;101541.91;;;14.09;100.00
74065;BME280;62421;51.412;5.432;2023-05-09T01:36:29;101539.22;;;14.09;100.00
74065;BME280;62421;51.412;5.432;2023-05-09T01:38:58;101535.66;;;14.09;100.00
74065;BME280;62421;51.412;5.432;2023-05-09T01:41:24;101529.59;;;14.05;100.00
74065;BME280;62421;51.412;5.432;2023-05-09T01:43:56;101531.56;;;14.03;100.00
74065;BME280;62421;51.412;5.432;2023-05-09T01:46:24;101525.31;;;14.03;100.00
74065;BME280;62421;51.412;5.432;2023-05-09T01:48:51;101525.50;;;14.00;100.00
74065;BME280;62421;51.412;5.432;2023-05-09T01:51:17;101523.81;;;13.99;100.00
74065;BME280;62421;51.412;5.432;2023-05-09T01:53:47;101528.34;;;13.98;100.00
74065;BME280;62421;51.412;5.432;2023-05-09T01:56:13;101516.78;;;13.96;100.00
74065;BME280;62421;51.412;5.432;2023-05-09T01:58:40;101512.47;;;13.93;100.00
74065;BME280;62421;51.412;5.432;2023-05-09T02:01:07;101525.22;;;13.91;100.00
74065;BME280;62421;51.412;5.432;2023-05-09T02:03:33;101520.03;;;13.88;100.00
74065;BME280;62421;51.412;5.432;2023-05-09T02:06:00;101520.28;;;13.85;100.00
74065;BME280;62421;51.412;5.432;2023-05-09T02:08:27;101507.97;;;13.81;100.00
74065;BME280;62421;51.412;5.432;2023-05-09T02:10:53;101503.66;;;13.79;100.00
74065;BME280;62421;51.412;5.432;2023-05-09T02:13:18;101495.78;;;13.76;100.00
74065;BME280;62421;51.412;5.432;2023-05-09T02:15:44;101512.09;;;13.74;100.00
74065;BME280;62421;51.412;5.432;2023-05-09T02:18:10;101514.78;;;13.74;100.00
74065;BME280;62421;51.412;5.432;2023-05-09T02:20:37;101516.88;;;13.70;100.00
74065;BME280;62421;51.412;5.432;2023-05-09T02:23:02;101516.88;;;13.70;100.00
74065;BME280;62421;51.412;5.432;2023-05-09T02:25:28;101521.50;;;13.68;100.00
74065;BME280;62421;51.412;5.432;2023-05-09T02:27:55;101515.34;;;13.66;100.00
74065;BME280;62421;51.412;5.432;2023-05-09T02:30:23;101516.31;;;13.65;100.00
74065;BME280;62421;51.412;5.432;2023-05-09T02:32:55;101512.13;;;13.61;100.00
74065;BME280;62421;51.412;5.432;2023-05-09T02:35:23;101513.19;;;13.59;100.00
74065;BME280;62421;51.412;5.432;2023-05-09T02:37:50;101514.28;;;13.56;100.00
74065;BME280;62421;51.412;5.432;2023-05-09T02:40:17;101524.34;;;13.54;100.00
74065;BME280;62421;51.412;5.432;2023-05-09T02:42:43;101508.47;;;13.49;100.00
74065;BME280;62421;51.412;5.432;2023-05-09T02:45:08;101501.69;;;13.44;100.00
74065;BME280;62421;51.412;5.432;2023-05-09T02:47:35;101498.47;;;13.39;100.00
74065;BME280;62421;51.412;5.432;2023-05-09T02:50:00;101502.25;;;13.36;100.00
74065;BME280;62421;51.412;5.432;2023-05-09T02:52:26;101492.75;;;13.30;100.00
74065;BME280;62421;51.412;5.432;2023-05-09T02:54:51;101494.00;;;13.25;100.00
74065;BME280;62421;51.412;5.432;2023-05-09T02:57:16;101494.31;;;13.20;100.00
74065;BME280;62421;51.412;5.432;2023-05-09T02:59:42;101488.19;;;13.18;100.00
74065;BME280;62421;51.412;5.432;2023-05-09T03:02:07;101483.03;;;13.15;100.00
74065;BME280;62421;51.412;5.432;2023-05-09T03:04:33;101480.41;;;13.14;100.00
74065;BME280;62421;51.412;5.432;2023-05-09T03:06:58;101483.13;;;13.14;100.00
74065;BME280;62421;51.412;5.432;2023-05-09T03:09:23;101470.72;;;13.11;100.00
74065;BME280;62421;51.412;5.432;2023-05-09T03:11:49;101475.16;;;13.12;100.00
74065;BME280;62421;51.412;5.432;2023-05-09T03:14:14;101474.28;;;13.11;100.00
74065;BME280;62421;51.412;5.432;2023-05-09T03:16:40;101477.94;;;13.10;100.00
74065;BME280;62421;51.412;5.432;2023-05-09T03:19:05;101468.88;;;13.11;100.00
74065;BME280;62421;51.412;5.432;2023-05-09T03:21:31;101465.44;;;13.09;100.00
74065;BME280;62421;51.412;5.432;2023-05-09T03:23:57;101464.56;;;13.09;100.00
74065;BME280;62421;51.412;5.432;2023-05-09T03:26:22;101458.09;;;13.11;100.00
74065;BME280;62421;51.412;5.432;2023-05-09T03:28:48;101466.94;;;13.14;100.00
74065;BME280;62421;51.412;5.432;2023-05-09T03:31:14;101463.38;;;13.13;100.00
74065;BME280;62421;51.412;5.432;2023-05-09T03:33:39;101455.19;;;13.15;100.00
74065;BME280;62421;51.412;5.432;2023-05-09T03:36:05;101463.16;;;13.16;100.00
74065;BME280;62421;51.412;5.432;2023-05-09T03:38:30;101460.47;;;13.16;100.00
74065;BME280;62421;51.412;5.432;2023-05-09T03:40:56;101465.00;;;13.16;100.00
74065;BME280;62421;51.412;5.432;2023-05-09T03:43:21;101455.94;;;13.17;100.00
74065;BME280;62421;51.412;5.432;2023-05-09T03:45:46;101449.81;;;13.15;100.00
74065;BME280;62421;51.412;5.432;2023-05-09T03:48:12;101452.59;;;13.13;100.00
74065;BME280;62421;51.412;5.432;2023-05-09T03:50:37;101451.00;;;13.10;100.00
74065;BME280;62421;51.412;5.432;2023-05-09T03:53:03;101452.94;;;13.08;100.00
74065;BME280;62421;51.412;5.432;2023-05-09T03:55:28;101449.47;;;13.06;100.00
74065;BME280;62421;51.412;5.432;2023-05-09T03:57:54;101448.72;;;13.04;100.00
74065;BME280;62421;51.412;5.432;2023-05-09T04:00:20;101449.69;;;13.03;100.00
74065;BME280;62421;51.412;5.432;2023-05-09T04:02:47;101436.34;;;13.02;100.00
74065;BME280;62421;51.412;5.432;2023-05-09T04:05:13;101439.03;;;13.02;100.00
74065;BME280;62421;51.412;5.432;2023-05-09T04:07:38;101433.63;;;13.02;100.00
74065;BME280;62421;51.412;5.432;2023-05-09T04:10:04;101429.19;;;13.01;100.00
74065;BME280;62421;51.412;5.432;2023-05-09T04:12:30;101424.66;;;13.01;100.00
74065;BME280;62421;51.412;5.432;2023-05-09T04:14:55;101419.16;;;13.03;100.00
74065;BME280;62421;51.412;5.432;2023-05-09T04:17:21;101415.53;;;13.04;100.00
74065;BME280;62421;51.412;5.432;2023-05-09T04:19:46;101416.38;;;13.04;100.00
74065;BME280;62421;51.412;5.432;2023-05-09T04:22:11;101419.06;;;13.04;100.00
74065;BME280;62421;51.412;5.432;2023-05-09T04:24:37;101412.59;;;13.07;100.00
74065;BME280;62421;51.412;5.432;2023-05-09T04:27:02;101418.75;;;13.09;100.00
74065;BME280;62421;51.412;5.432;2023-05-09T04:29:28;101416.03;;;13.09;100.00
74065;BME280;62421;51.412;5.432;2023-05-09T04:31:53;101413.00;;;13.14;100.00
74065;BME280;62421;51.412;5.432;2023-05-09T04:34:18;101410.13;;;13.17;100.00
74065;BME280;62421;51.412;5.432;2023-05-09T04:36:44;101414.31;;;13.21;100.00
74065;BME280;62421;51.412;5.432;2023-05-09T04:39:09;101419.25;;;13.27;100.00
74065;BME280;62421;51.412;5.432;2023-05-09T04:41:35;101404.72;;;13.29;100.00
74065;BME280;62421;51.412;5.432;2023-05-09T04:44:00;101402.66;;;13.33;100.00
74065;BME280;62421;51.412;5.432;2023-05-09T04:46:26;101396.81;;;13.39;100.00
74065;BME280;62421;51.412;5.432;2023-05-09T04:48:52;101401.00;;;13.43;100.00
74065;BME280;62421;51.412;5.432;2023-05-09T04:51:17;101392.47;;;13.49;100.00
74065;BME280;62421;51.412;5.432;2023-05-09T04:53:43;101390.28;;;13.55;100.00
74065;BME280;62421;51.412;5.432;2023-05-09T04:56:09;101385.19;;;13.63;100.00
74065;BME280;62421;51.412;5.432;2023-05-09T04:58:34;101383.53;;;13.73;100.00
74065;BME280;62421;51.412;5.432;2023-05-09T05:01:03;101381.88;;;13.83;100.00
74065;BME280;62421;51.412;5.432;2023-05-09T05:03:29;101380.66;;;13.87;100.00
74065;BME280;62421;51.412;5.432;2023-05-09T05:05:54;101368.03;;;13.88;100.00
74065;BME280;62421;51.412;5.432;2023-05-09T05:08:19;101368.97;;;13.87;100.00
74065;BME280;62421;51.412;5.432;2023-05-09T05:10:45;101355.63;;;13.85;100.00
74065;BME280;62421;51.412;5.432;2023-05-09T05:13:11;101354.63;;;13.86;100.00
74065;BME280;62421;51.412;5.432;2023-05-09T05:15:37;101348.28;;;13.87;100.00
74065;BME280;62421;51.412;5.432;2023-05-09T05:18:02;101342.72;;;13.89;100.00
74065;BME280;62421;51.412;5.432;2023-05-09T05:20:27;101351.47;;;13.92;100.00
74065;BME280;62421;51.412;5.432;2023-05-09T05:22:53;101349.25;;;13.98;100.00
74065;BME280;62421;51.412;5.432;2023-05-09T05:25:19;101353.44;;;14.02;100.00
74065;BME280;62421;51.412;5.432;2023-05-09T05:27:45;101347.59;;;14.08;100.00
74065;BME280;62421;51.412;5.432;2023-05-09T05:30:11;101341.81;;;14.12;100.00
74065;BME280;62421;51.412;5.432;2023-05-09T05:32:37;101336.94;;;14.18;100.00
74065;BME280;62421;51.412;5.432;2023-05-09T05:35:03;101330.09;;;14.25;100.00
74065;BME280;62421;51.412;5.432;2023-05-09T05:37:29;101338.94;;;14.38;100.00
74065;BME280;62421;51.412;5.432;2023-05-09T05:39:54;101331.47;;;14.53;100.00
74065;BME280;62421;51.412;5.432;2023-05-09T05:42:20;101324.13;;;14.66;100.00
74065;BME280;62421;51.412;5.432;2023-05-09T05:44:45;101323.16;;;14.79;100.00
74065;BME280;62421;51.412;5.432;2023-05-09T05:47:10;101323.03;;;14.91;100.00
74065;BME280;62421;51.412;5.432;2023-05-09T05:49:36;101328.53;;;15.01;100.00
74065;BME280;62421;51.412;5.432;2023-05-09T05:52:01;101325.34;;;15.07;100.00
74065;BME280;62421;51.412;5.432;2023-05-09T05:54:27;101327.09;;;15.08;100.00
74065;BME280;62421;51.412;5.432;2023-05-09T05:56:52;101320.44;;;15.12;100.00
74065;BME280;62421;51.412;5.432;2023-05-09T05:59:17;101319.69;;;15.22;100.00
74065;BME280;62421;51.412;5.432;2023-05-09T06:01:43;101312.25;;;15.35;100.00
74065;BME280;62421;51.412;5.432;2023-05-09T06:04:08;101315.06;;;15.45;100.00
74065;BME280;62421;51.412;5.432;2023-05-09T06:06:33;101306.78;;;15.57;100.00
74065;BME280;62421;51.412;5.432;2023-05-09T06:08:59;101307.59;;;15.69;100.00
74065;BME280;62421;51.412;5.432;2023-05-09T06:11:25;101316.09;;;15.76;100.00
74065;BME280;62421;51.412;5.432;2023-05-09T06:13:50;101300.44;;;15.80;100.00
74065;BME280;62421;51.412;5.432;2023-05-09T06:16:16;101291.19;;;15.82;100.00
74065;BME280;62421;51.412;5.432;2023-05-09T06:18:41;101278.66;;;15.81;100.00
74065;BME280;62421;51.412;5.432;2023-05-09T06:21:06;101284.09;;;15.81;100.00
74065;BME280;62421;51.412;5.432;2023-05-09T06:23:32;101286.06;;;15.79;100.00
74065;BME280;62421;51.412;5.432;2023-05-09T06:25:57;101282.63;;;15.77;100.00
74065;BME280;62421;51.412;5.432;2023-05-09T06:28:23;101289.63;;;15.80;100.00
74065;BME280;62421;51.412;5.432;2023-05-09T06:30:48;101287.03;;;15.78;100.00
74065;BME280;62421;51.412;5.432;2023-05-09T06:33:14;101285.31;;;15.77;100.00
74065;BME280;62421;51.412;5.432;2023-05-09T06:35:39;101276.59;;;15.73;100.00
74065;BME280;62421;51.412;5.432;2023-05-09T06:38:04;101279.19;;;15.75;100.00
74065;BME280;62421;51.412;5.432;2023-05-09T06:40:31;101275.22;;;15.79;100.00
74065;BME280;62421;51.412;5.432;2023-05-09T06:42:56;101278.50;;;15.83;100.00
74065;BME280;62421;51.412;5.432;2023-05-09T06:45:21;101275.41;;;15.87;100.00
74065;BME280;62421;51.412;5.432;2023-05-09T06:47:47;101264.44;;;15.89;100.00
74065;BME280;62421;51.412;5.432;2023-05-09T06:50:12;101266.91;;;15.92;100.00
74065;BME280;62421;51.412;5.432;2023-05-09T06:52:37;101271.06;;;15.96;100.00
74065;BME280;62421;51.412;5.432;2023-05-09T06:55:03;101258.38;;;15.96;100.00
74065;BME280;62421;51.412;5.432;2023-05-09T06:57:28;101263.06;;;15.94;100.00
74065;BME280;62421;51.412;5.432;2023-05-09T06:59:54;101257.44;;;15.86;100.00
74065;BME280;62421;51.412;5.432;2023-05-09T07:02:19;101264.25;;;15.81;100.00
74065;BME280;62421;51.412;5.432;2023-05-09T07:04:45;101250.13;;;15.77;100.00
74065;BME280;62421;51.412;5.432;2023-05-09T07:07:10;101248.56;;;15.74;100.00
74065;BME280;62421;51.412;5.432;2023-05-09T07:09:35;101255.78;;;15.74;100.00
74065;BME280;62421;51.412;5.432;2023-05-09T07:12:01;101252.97;;;15.75;100.00
74065;BME280;62421;51.412;5.432;2023-05-09T07:14:26;101254.53;;;15.78;100.00
74065;BME280;62421;51.412;5.432;2023-05-09T07:16:52;101249.72;;;15.82;100.00
74065;BME280;62421;51.412;5.432;2023-05-09T07:19:18;101251.59;;;15.81;100.00
74065;BME280;62421;51.412;5.432;2023-05-09T07:21:43;101246.41;;;15.78;100.00
74065;BME280;62421;51.412;5.432;2023-05-09T07:24:08;101238.56;;;15.75;100.00
74065;BME280;62421;51.412;5.432;2023-05-09T07:26:34;101239.06;;;15.69;100.00
74065;BME280;62421;51.412;5.432;2023-05-09T07:29:00;101233.72;;;15.57;100.00
74065;BME280;62421;51.412;5.432;2023-05-09T07:31:25;101238.19;;;15.47;100.00
74065;BME280;62421;51.412;5.432;2023-05-09T07:33:51;101243.38;;;15.39;100.00
74065;BME280;62421;51.412;5.432;2023-05-09T07:36:16;101243.03;;;15.32;100.00
74065;BME280;62421;51.412;5.432;2023-05-09T07:38:42;101249.69;;;15.28;100.00
74065;BME280;62421;51.412;5.432;2023-05-09T07:41:07;101240.50;;;15.20;100.00
74065;BME280;62421;51.412;5.432;2023-05-09T07:43:32;101236.09;;;15.07;100.00
74065;BME280;62421;51.412;5.432;2023-05-09T07:45:58;101232.19;;;15.00;100.00
74065;BME280;62421;51.412;5.432;2023-05-09T07:48:23;101229.03;;;14.95;100.00
74065;BME280;62421;51.412;5.432;2023-05-09T07:50:49;101242.53;;;14.95;100.00
74065;BME280;62421;51.412;5.432;2023-05-09T07:53:14;101241.53;;;14.96;100.00
74065;BME280;62421;51.412;5.432;2023-05-09T07:55:39;101223.34;;;14.98;100.00
74065;BME280;62421;51.412;5.432;2023-05-09T07:58:05;101219.88;;;15.07;100.00
74065;BME280;62421;51.412;5.432;2023-05-09T08:00:30;101211.94;;;15.27;100.00
74065;BME280;62421;51.412;5.432;2023-05-09T08:02:55;101214.44;;;15.51;100.00
74065;BME280;62421;51.412;5.432;2023-05-09T08:05:21;101203.94;;;15.79;100.00
74065;BME280;62421;51.412;5.432;2023-05-09T08:07:47;101208.41;;;16.10;100.00
74065;BME280;62421;51.412;5.432;2023-05-09T08:10:12;101201.81;;;16.34;100.00
74065;BME280;62421;51.412;5.432;2023-05-09T08:12:38;101201.34;;;16.50;100.00
74065;BME280;62421;51.412;5.432;2023-05-09T08:15:04;101205.03;;;16.49;100.00
74065;BME280;62421;51.412;5.432;2023-05-09T08:17:29;101192.47;;;16.48;100.00
74065;BME280;62421;51.412;5.432;2023-05-09T08:19:55;101190.03;;;16.45;100.00
74065;BME280;62421;51.412;5.432;2023-05-09T08:22:20;101189.06;;;16.46;100.00
74065;BME280;62421;51.412;5.432;2023-05-09T08:24:46;101188.47;;;16.42;100.00
74065;BME280;62421;51.412;5.432;2023-05-09T08:27:12;101177.44;;;16.34;100.00
74065;BME280;62421;51.412;5.432;2023-05-09T08:29:41;101173.16;;;16.41;100.00
74065;BME280;62421;51.412;5.432;2023-05-09T08:32:07;101170.63;;;16.49;100.00
74065;BME280;62421;51.412;5.432;2023-05-09T08:34:33;101172.63;;;16.47;100.00
74065;BME280;62421;51.412;5.432;2023-05-09T08:37:02;101162.94;;;16.45;100.00
74065;BME280;62421;51.412;5.432;2023-05-09T08:39:31;101166.22;;;16.48;100.00
74065;BME280;62421;51.412;5.432;2023-05-09T08:41:59;101160.81;;;16.48;100.00
74065;BME280;62421;51.412;5.432;2023-05-09T08:44:27;101170.81;;;16.48;100.00
74065;BME280;62421;51.412;5.432;2023-05-09T08:46:58;101169.25;;;16.55;100.00
74065;BME280;62421;51.412;5.432;2023-05-09T08:49:24;101167.38;;;16.55;100.00
74065;BME280;62421;51.412;5.432;2023-05-09T08:51:50;101171.53;;;16.59;100.00
74065;BME280;62421;51.412;5.432;2023-05-09T08:54:17;101159.72;;;16.61;100.00
74065;BME280;62421;51.412;5.432;2023-05-09T08:56:42;101161.09;;;16.55;100.00
74065;BME280;62421;51.412;5.432;2023-05-09T08:59:08;101159.53;;;16.52;100.00
74065;BME280;62421;51.412;5.432;2023-05-09T09:01:34;101161.31;;;16.32;100.00
74065;BME280;62421;51.412;5.432;2023-05-09T09:04:06;101160.97;;;16.16;100.00
74065;BME280;62421;51.412;5.432;2023-05-09T09:06:35;101151.22;;;16.04;100.00
74065;BME280;62421;51.412;5.432;2023-05-09T09:09:02;101154.88;;;15.93;100.00
74065;BME280;62421;51.412;5.432;2023-05-09T09:11:30;101150.41;;;15.82;100.00
74065;BME280;62421;51.412;5.432;2023-05-09T09:14:00;101149.47;;;15.72;100.00
74065;BME280;62421;51.412;5.432;2023-05-09T09:16:28;101159.31;;;15.52;100.00
74065;BME280;62421;51.412;5.432;2023-05-09T09:18:54;101147.09;;;15.36;100.00
74065;BME280;62421;51.412;5.432;2023-05-09T09:21:20;101150.31;;;15.30;100.00
74065;BME280;62421;51.412;5.432;2023-05-09T09:23:48;101145.75;;;15.31;100.00
74065;BME280;62421;51.412;5.432;2023-05-09T09:26:14;101155.81;;;15.40;100.00
74065;BME280;62421;51.412;5.432;2023-05-09T09:28:40;101138.97;;;15.36;100.00
74065;BME280;62421;51.412;5.432;2023-05-09T09:31:22;101130.91;;;15.46;100.00
74065;BME280;62421;51.412;5.432;2023-05-09T09:33:48;101131.97;;;15.55;100.00
74065;BME280;62421;51.412;5.432;2023-05-09T09:36:13;101128.47;;;15.64;100.00
74065;BME280;62421;51.412;5.432;2023-05-09T09:38:40;101120.50;;;15.84;100.00
74065;BME280;62421;51.412;5.432;2023-05-09T09:41:06;101128.69;;;16.03;100.00
74065;BME280;62421;51.412;5.432;2023-05-09T09:43:32;101125.06;;;16.24;100.00
74065;BME280;62421;51.412;5.432;2023-05-09T09:46:01;101120.94;;;16.29;100.00
74065;BME280;62421;51.412;5.432;2023-05-09T09:48:32;101119.97;;;16.40;100.00
74065;BME280;62421;51.412;5.432;2023-05-09T09:51:07;101121.28;;;16.55;100.00
74065;BME280;62421;51.412;5.432;2023-05-09T09:53:40;101125.44;;;16.59;100.00
74065;BME280;62421;51.412;5.432;2023-05-09T09:56:06;101108.03;;;16.62;100.00
74065;BME280;62421;51.412;5.432;2023-05-09T09:58:32;101110.47;;;16.65;100.00
74065;BME280;62421;51.412;5.432;2023-05-09T10:03:41;101108.75;;;16.64;100.00
74065;BME280;62421;51.412;5.432;2023-05-09T10:06:14;101100.63;;;16.54;100.00
74065;BME280;62421;51.412;5.432;2023-05-09T10:08:42;101100.47;;;16.46;100.00
74065;BME280;62421;51.412;5.432;2023-05-09T10:11:08;101101.13;;;16.38;100.00
74065;BME280;62421;51.412;5.432;2023-05-09T10:13:35;101099.88;;;16.43;100.00
74065;BME280;62421;51.412;5.432;2023-05-09T10:16:02;101097.63;;;16.48;100.00
74065;BME280;62421;51.412;5.432;2023-05-09T10:18:28;101100.03;;;16.51;100.00
74065;BME280;62421;51.412;5.432;2023-05-09T10:20:56;101094.91;;;16.48;100.00
74065;BME280;62421;51.412;5.432;2023-05-09T10:23:29;101100.88;;;16.42;100.00
74065;BME280;62421;51.412;5.432;2023-05-09T10:26:16;101099.31;;;16.39;100.00
74065;BME280;62421;51.412;5.432;2023-05-09T10:28:44;101094.88;;;16.28;100.00
74065;BME280;62421;51.412;5.432;2023-05-09T10:33:49;101098.94;;;16.13;100.00
74065;BME280;62421;51.412;5.432;2023-05-09T10:36:19;101087.06;;;16.04;100.00
74065;BME280;62421;51.412;5.432;2023-05-09T10:38:46;101085.19;;;15.95;100.00
74065;BME280;62421;51.412;5.432;2023-05-09T10:41:13;101078.44;;;15.80;100.00
74065;BME280;62421;51.412;5.432;2023-05-09T10:43:40;101081.81;;;15.72;100.00
74065;BME280;62421;51.412;5.432;2023-05-09T10:46:07;101079.28;;;15.59;100.00
74065;BME280;62421;51.412;5.432;2023-05-09T10:48:34;101073.31;;;15.55;100.00
74065;BME280;62421;51.412;5.432;2023-05-09T10:51:01;101071.44;;;15.56;100.00
74065;BME280;62421;51.412;5.432;2023-05-09T10:53:44;101062.72;;;15.52;100.00
74065;BME280;62421;51.412;5.432;2023-05-09T10:56:29;101067.09;;;15.44;100.00
74065;BME280;62421;51.412;5.432;2023-05-09T10:58:56;101057.59;;;15.28;100.00
74065;BME280;62421;51.412;5.432;2023-05-09T11:01:29;101056.44;;;15.21;100.00
74065;BME280;62421;51.412;5.432;2023-05-09T11:03:58;101055.09;;;15.15;100.00
74065;BME280;62421;51.412;5.432;2023-05-09T11:12:13;101054.25;;;14.94;100.00
74065;BME280;62421;51.412;5.432;2023-05-09T11:14:48;101046.84;;;14.96;100.00
74065;BME280;62421;51.412;5.432;2023-05-09T11:22:15;101039.03;;;14.93;100.00
74065;BME280;62421;51.412;5.432;2023-05-09T11:24:49;101030.19;;;14.91;100.00
74065;BME280;62421;51.412;5.432;2023-05-09T11:27:18;101024.28;;;14.86;100.00
74065;BME280;62421;51.412;5.432;2023-05-09T11:29:49;101035.03;;;14.76;100.00
74065;BME280;62421;51.412;5.432;2023-05-09T11:32:15;101031.00;;;14.70;100.00
74065;BME280;62421;51.412;5.432;2023-05-09T11:34:44;101022.91;;;14.70;100.00
74065;BME280;62421;51.412;5.432;2023-05-09T11:37:12;101026.59;;;14.69;100.00
74065;BME280;62421;51.412;5.432;2023-05-09T11:39:58;101013.34;;;14.66;100.00
74065;BME280;62421;51.412;5.432;2023-05-09T11:42:28;101019.47;;;14.68;100.00
74065;BME280;62421;51.412;5.432;2023-05-09T11:44:54;101011.28;;;14.80;100.00
74065;BME280;62421;51.412;5.432;2023-05-09T11:47:20;101017.13;;;14.96;100.00
74065;BME280;62421;51.412;5.432;2023-05-09T11:49:47;101013.28;;;14.99;100.00
74065;BME280;62421;51.412;5.432;2023-05-09T11:52:13;101008.88;;;14.98;100.00
74065;BME280;62421;51.412;5.432;2023-05-09T11:54:39;101005.16;;;14.99;100.00
74065;BME280;62421;51.412;5.432;2023-05-09T11:57:05;101015.53;;;14.93;100.00
74065;BME280;62421;51.412;5.432;2023-05-09T11:59:34;101004.47;;;14.76;100.00
74065;BME280;62421;51.412;5.432;2023-05-09T12:02:03;101006.63;;;14.61;100.00
74065;BME280;62421;51.412;5.432;2023-05-09T12:04:32;100996.41;;;14.53;100.00
74065;BME280;62421;51.412;5.432;2023-05-09T12:06:58;100996.41;;;14.53;100.00
74065;BME280;62421;51.412;5.432;2023-05-09T12:09:28;101003.56;;;14.54;100.00
74065;BME280;62421;51.412;5.432;2023-05-09T12:11:54;100996.69;;;14.50;100.00
74065;BME280;62421;51.412;5.432;2023-05-09T12:14:28;100993.97;;;14.50;100.00
74065;BME280;62421;51.412;5.432;2023-05-09T12:16:53;100990.56;;;14.48;100.00
74065;BME280;62421;51.412;5.432;2023-05-09T12:19:19;100987.03;;;14.36;100.00
74065;BME280;62421;51.412;5.432;2023-05-09T12:21:45;100986.69;;;14.29;100.00
74065;BME280;62421;51.412;5.432;2023-05-09T12:24:10;100987.69;;;14.17;100.00
74065;BME280;62421;51.412;5.432;2023-05-09T12:26:35;100986.09;;;14.14;100.00
74065;BME280;62421;51.412;5.432;2023-05-09T12:29:01;100982.28;;;14.17;100.00
74065;BME280;62421;51.412;5.432;2023-05-09T12:31:27;100979.09;;;14.23;100.00
74065;BME280;62421;51.412;5.432;2023-05-09T12:33:53;100972.72;;;14.24;100.00
74065;BME280;62421;51.412;5.432;2023-05-09T12:36:18;100975.03;;;14.29;100.00
74065;BME280;62421;51.412;5.432;2023-05-09T12:38:53;100975.75;;;14.31;100.00
74065;BME280;62421;51.412;5.432;2023-05-09T12:41:19;100961.97;;;14.34;100.00
74065;BME280;62421;51.412;5.432;2023-05-09T12:43:49;100970.81;;;14.36;100.00
74065;BME280;62421;51.412;5.432;2023-05-09T12:46:19;100964.56;;;14.36;100.00
74065;BME280;62421;51.412;5.432;2023-05-09T12:48:46;100963.66;;;14.46;100.00
74065;BME280;62421;51.412;5.432;2023-05-09T12:51:20;100961.94;;;14.57;100.00
74065;BME280;62421;51.412;5.432;2023-05-09T12:53:46;100950.78;;;14.71;100.00
74065;BME280;62421;51.412;5.432;2023-05-09T12:56:14;100953.88;;;14.87;100.00
74065;BME280;62421;51.412;5.432;2023-05-09T12:58:47;100948.25;;;15.00;100.00
74065;BME280;62421;51.412;5.432;2023-05-09T13:01:14;100957.53;;;15.07;100.00
74065;BME280;62421;51.412;5.432;2023-05-09T13:03:39;100954.44;;;15.12;100.00